Time;durP1;ratioP1;P1;durP2;ratioP2;P2;SDS_P1;SDS_P2;PMS_P1;PMS_P2;Temp;Humidity;BMP_temperature;BMP_pressure;BME280_temperature;BME280_humidity;BME280_pressure;Samples;Min_cycle;Max_cycle;Signal;HPM_P1;HPM_P2
2022/02/18 00:01:42;;;;;;;16.17;5.97;;;10.50;99.90;;;;;;5050593;28;20210;-71
2022/02/18 00:04:08;;;;;;;15.50;4.73;;;10.50;99.90;;;;;;5040525;28;20183;-71
2022/02/18 00:06:33;;;;;;;14.27;4.00;;;10.40;99.90;;;;;;5050255;28;20194;-72
2022/02/18 00:08:59;;;;;;;12.77;4.90;;;10.40;99.90;;;;;;5050727;28;20189;-69
2022/02/18 00:11:25;;;;;;;19.30;5.00;;;10.70;99.90;;;;;;5040756;28;20225;-71
2022/02/18 00:13:51;;;;;;;14.10;4.60;;;10.70;99.90;;;;;;5050380;28;20221;-72
2022/02/18 00:16:16;;;;;;;12.37;4.10;;;10.60;99.90;;;;;;5050977;28;20416;-69
2022/02/18 00:18:42;;;;;;;16.43;5.17;;;10.60;99.90;;;;;;5049927;28;20199;-68
2022/02/18 00:21:08;;;;;;;18.90;4.73;;;10.50;99.90;;;;;;5050179;28;20583;-71
2022/02/18 00:23:33;;;;;;;17.70;5.47;;;10.50;99.90;;;;;;5049260;28;20179;-70
2022/02/18 00:25:59;;;;;;;15.87;5.60;;;10.60;99.90;;;;;;5049246;28;20210;-71
2022/02/18 00:28:25;;;;;;;8.50;3.90;;;10.60;99.90;;;;;;5051877;28;20236;-71
2022/02/18 00:30:51;;;;;;;15.17;4.93;;;10.60;99.90;;;;;;5051540;28;20516;-71
2022/02/18 00:33:18;;;;;;;14.10;4.20;;;10.70;99.90;;;;;;5053086;28;20204;-72
2022/02/18 00:35:44;;;;;;;13.97;4.00;;;10.90;99.90;;;;;;5053405;28;20182;-70
2022/02/18 00:38:10;;;;;;;12.17;4.37;;;10.70;99.90;;;;;;5048987;28;20433;-70
2022/02/18 00:40:35;;;;;;;14.07;4.33;;;10.70;99.90;;;;;;5046454;28;20186;-70
2022/02/18 00:43:01;;;;;;;16.10;5.03;;;10.60;99.90;;;;;;5046785;28;20172;-71
2022/02/18 00:45:28;;;;;;;16.57;4.53;;;10.40;99.90;;;;;;5046584;28;20213;-73
2022/02/18 00:47:54;;;;;;;15.70;5.50;;;10.70;99.90;;;;;;5046237;28;20237;-71
2022/02/18 00:50:22;;;;;;;11.90;4.97;;;10.60;99.90;;;;;;5046195;28;20423;-70
2022/02/18 00:52:48;;;;;;;15.17;4.57;;;10.60;99.90;;;;;;5046223;28;20228;-73
2022/02/18 00:55:14;;;;;;;18.90;5.53;;;10.70;99.90;;;;;;5045926;28;20497;-71
2022/02/18 00:57:39;;;;;;;14.27;4.43;;;10.70;99.90;;;;;;5045848;28;20466;-70
2022/02/18 01:00:09;;;;;;;13.87;4.97;;;10.80;99.90;;;;;;5046364;28;20445;-69
2022/02/18 01:02:35;;;;;;;20.70;4.90;;;10.80;99.90;;;;;;5048628;28;20271;-71
2022/02/18 01:05:01;;;;;;;16.40;5.60;;;10.80;99.90;;;;;;5048937;28;20445;-70
2022/02/18 01:07:26;;;;;;;14.30;4.50;;;10.80;99.90;;;;;;5048656;28;21413;-69
2022/02/18 01:09:54;;;;;;;13.77;4.23;;;10.80;99.90;;;;;;5049226;28;20929;-69
2022/02/18 01:12:21;;;;;;;13.90;4.57;;;10.90;99.90;;;;;;5037621;28;20293;-71
2022/02/18 01:14:48;;;;;;;16.20;4.73;;;10.80;99.90;;;;;;5048982;28;20478;-70
2022/02/18 01:17:14;;;;;;;16.43;4.60;;;10.80;99.90;;;;;;5049116;28;20418;-70
2022/02/18 01:19:39;;;;;;;13.23;4.17;;;10.80;99.90;;;;;;5042305;28;20765;-69
2022/02/18 01:22:05;;;;;;;13.00;3.97;;;10.80;99.90;;;;;;5048553;28;20441;-72
2022/02/18 01:24:31;;;;;;;10.37;3.90;;;10.80;99.90;;;;;;5047242;28;20543;-74
2022/02/18 01:26:57;;;;;;;15.43;4.33;;;11.00;99.90;;;;;;5048996;28;20169;-72
2022/02/18 01:29:22;;;;;;;13.47;3.97;;;11.20;99.90;;;;;;5048444;28;20208;-71
2022/02/18 01:31:48;;;;;;;13.90;4.63;;;11.10;99.90;;;;;;5040181;28;20464;-70
2022/02/18 01:34:14;;;;;;;17.93;4.67;;;11.10;99.90;;;;;;5048823;28;20197;-70
2022/02/18 01:36:40;;;;;;;10.87;4.50;;;10.80;99.90;;;;;;5048387;28;20188;-72
2022/02/18 01:39:06;;;;;;;10.60;4.23;;;10.90;99.90;;;;;;5048582;28;20415;-69
2022/02/18 01:41:33;;;;;;;19.27;4.97;;;11.00;99.90;;;;;;5039945;28;20460;-69
2022/02/18 01:44:00;;;;;;;15.80;4.73;;;11.10;99.90;;;;;;5036804;28;20428;-69
2022/02/18 01:46:27;;;;;;;11.17;3.90;;;11.00;99.90;;;;;;5048268;28;20475;-72
2022/02/18 01:48:54;;;;;;;17.63;4.60;;;11.00;99.90;;;;;;5038813;28;20424;-71
2022/02/18 01:51:22;;;;;;;14.60;4.77;;;11.00;99.90;;;;;;5034156;28;20487;-71
2022/02/18 01:53:52;;;;;;;8.20;3.83;;;11.10;99.90;;;;;;5041114;28;20433;-72
2022/02/18 01:56:20;;;;;;;21.30;3.73;;;11.20;99.90;;;;;;5048569;28;20429;-71
2022/02/18 01:58:46;;;;;;;15.13;5.53;;;11.20;99.90;;;;;;5048279;28;20492;-72
2022/02/18 02:01:12;;;;;;;17.23;4.80;;;11.10;99.90;;;;;;5048492;28;20445;-71
2022/02/18 02:03:38;;;;;;;7.93;4.10;;;11.00;99.90;;;;;;5048690;28;20237;-70
2022/02/18 02:06:08;;;;;;;12.80;4.10;;;11.10;99.90;;;;;;5047635;28;20813;-70
2022/02/18 02:08:36;;;;;;;16.23;4.33;;;11.00;99.90;;;;;;5047717;28;20551;-70
2022/02/18 02:11:03;;;;;;;11.30;4.57;;;10.90;99.90;;;;;;5047958;28;20438;-72
2022/02/18 02:13:35;;;;;;;14.00;3.73;;;10.90;99.90;;;;;;5041757;28;21063;-72
2022/02/18 02:16:01;;;;;;;11.63;3.70;;;11.00;99.90;;;;;;5047838;28;20411;-73
2022/02/18 02:18:27;;;;;;;11.43;4.30;;;10.90;99.90;;;;;;5047978;28;20472;-72
2022/02/18 02:20:53;;;;;;;17.60;4.17;;;10.90;99.90;;;;;;5047121;28;20437;-72
2022/02/18 02:23:18;;;;;;;11.33;3.87;;;11.00;99.90;;;;;;5048428;28;20179;-72
2022/02/18 02:25:45;;;;;;;13.77;3.87;;;10.90;99.90;;;;;;5047946;28;20230;-70
2022/02/18 02:28:11;;;;;;;15.43;4.33;;;10.70;99.90;;;;;;5048391;28;20166;-72
2022/02/18 02:30:37;;;;;;;10.67;3.67;;;10.60;99.90;;;;;;5047538;28;20457;-71
2022/02/18 02:33:03;;;;;;;12.17;3.80;;;10.70;99.90;;;;;;5048051;28;20190;-72
2022/02/18 02:35:28;;;;;;;14.80;4.57;;;10.80;99.90;;;;;;5047050;28;20425;-71
2022/02/18 02:37:55;;;;;;;15.13;4.50;;;11.00;99.90;;;;;;5048031;28;20189;-71
2022/02/18 02:40:20;;;;;;;13.93;4.43;;;11.00;99.90;;;;;;5047943;28;20406;-71
2022/02/18 02:42:47;;;;;;;15.73;5.20;;;10.90;99.90;;;;;;5047145;28;20994;-70
2022/02/18 02:45:13;;;;;;;17.30;4.40;;;10.90;99.90;;;;;;5046939;28;20202;-70
2022/02/18 02:47:42;;;;;;;13.77;4.83;;;10.90;99.90;;;;;;5047681;28;20473;-72
2022/02/18 02:50:08;;;;;;;12.57;3.70;;;10.80;99.90;;;;;;5046429;28;20794;-68
2022/02/18 02:52:34;;;;;;;16.13;4.50;;;10.80;99.90;;;;;;5046551;28;20450;-74
2022/02/18 02:54:59;;;;;;;16.93;5.00;;;10.80;99.90;;;;;;5046167;28;20417;-71
2022/02/18 02:57:25;;;;;;;12.70;4.03;;;10.70;99.90;;;;;;5046159;28;20243;-71
2022/02/18 02:59:50;;;;;;;14.87;4.20;;;10.50;99.90;;;;;;5046511;28;20178;-73
2022/02/18 03:02:16;;;;;;;11.00;3.57;;;10.50;99.90;;;;;;5046341;28;20254;-75
2022/02/18 03:04:41;;;;;;;17.33;4.13;;;10.60;99.90;;;;;;5040147;28;20183;-73
2022/02/18 03:07:07;;;;;;;15.33;5.33;;;10.70;99.90;;;;;;5046506;28;20175;-73
2022/02/18 03:09:33;;;;;;;15.87;5.70;;;10.70;99.90;;;;;;5046362;28;20176;-71
2022/02/18 03:11:59;;;;;;;10.80;3.87;;;10.50;99.90;;;;;;5046995;28;20436;-71
2022/02/18 03:14:25;;;;;;;9.43;3.50;;;10.40;99.90;;;;;;5047546;28;20527;-71
2022/02/18 03:16:51;;;;;;;12.33;3.73;;;10.30;99.90;;;;;;5046623;28;20701;-70
2022/02/18 03:19:16;;;;;;;11.73;3.87;;;10.30;99.90;;;;;;5046927;28;20409;-70
2022/02/18 03:21:42;;;;;;;12.00;3.63;;;10.20;99.90;;;;;;5035372;28;20206;-70
2022/02/18 03:24:07;;;;;;;9.77;3.77;;;10.20;99.90;;;;;;5046941;28;20593;-73
2022/02/18 03:26:33;;;;;;;8.40;3.23;;;10.00;99.90;;;;;;5046313;28;20192;-70
2022/02/18 03:28:59;;;;;;;11.20;4.10;;;10.10;99.90;;;;;;5046957;28;20185;-71
2022/02/18 03:31:24;;;;;;;11.13;3.53;;;10.00;99.90;;;;;;5045929;28;20200;-71
2022/02/18 03:33:50;;;;;;;11.20;3.17;;;10.10;99.90;;;;;;5038804;28;20176;-71
2022/02/18 03:36:16;;;;;;;11.73;4.30;;;10.10;99.90;;;;;;5037285;28;20606;-72
2022/02/18 03:38:41;;;;;;;13.93;3.53;;;10.00;99.90;;;;;;5046643;28;20186;-74
2022/02/18 03:41:07;;;;;;;9.57;3.30;;;10.10;99.90;;;;;;5046280;28;20270;-71
2022/02/18 03:43:33;;;;;;;14.03;4.20;;;10.00;99.90;;;;;;5046320;28;20178;-70
2022/02/18 03:45:59;;;;;;;14.53;4.23;;;10.00;99.90;;;;;;5046453;28;20209;-71
2022/02/18 03:48:25;;;;;;;12.63;3.63;;;9.90;99.90;;;;;;5045846;28;20413;-70
2022/02/18 03:50:50;;;;;;;10.60;3.60;;;9.80;99.90;;;;;;5045528;28;20200;-71
2022/02/18 03:53:16;;;;;;;10.47;3.77;;;9.80;99.90;;;;;;5045711;28;20181;-69
2022/02/18 03:55:41;;;;;;;12.97;3.60;;;9.80;99.90;;;;;;5045984;28;20183;-73
2022/02/18 03:58:07;;;;;;;8.20;4.30;;;9.90;99.90;;;;;;5039134;28;20184;-70
2022/02/18 04:00:33;;;;;;;13.67;3.40;;;9.90;99.90;;;;;;5050075;28;20277;-71
2022/02/18 04:02:59;;;;;;;10.57;3.57;;;9.80;99.90;;;;;;5037835;28;20189;-71
2022/02/18 04:05:24;;;;;;;13.30;4.60;;;9.80;99.90;;;;;;5049668;28;20467;-70
2022/02/18 04:07:50;;;;;;;12.10;3.63;;;9.80;99.90;;;;;;5049360;28;20179;-70
2022/02/18 04:10:15;;;;;;;12.43;3.80;;;9.80;99.90;;;;;;5037782;28;20269;-71
2022/02/18 04:12:41;;;;;;;10.50;3.37;;;9.60;99.90;;;;;;5050180;28;20581;-71
2022/02/18 04:15:07;;;;;;;9.20;4.33;;;9.60;99.90;;;;;;5050658;28;20656;-69
2022/02/18 04:17:33;;;;;;;8.03;3.53;;;9.60;99.90;;;;;;5052250;28;20191;-71
2022/02/18 04:19:59;;;;;;;13.97;3.70;;;9.60;99.90;;;;;;5050415;28;20428;-69
2022/02/18 04:22:25;;;;;;;9.80;3.20;;;9.60;99.90;;;;;;5049390;28;20211;-73
2022/02/18 04:24:51;;;;;;;11.33;3.83;;;9.70;99.90;;;;;;5048164;28;20464;-69
2022/02/18 04:27:16;;;;;;;12.00;3.47;;;9.70;99.90;;;;;;5048906;28;20448;-71
2022/02/18 04:29:43;;;;;;;13.40;3.70;;;9.70;99.90;;;;;;5038248;28;20174;-71
2022/02/18 04:32:08;;;;;;;10.40;3.53;;;9.60;99.90;;;;;;5049119;28;20213;-71
2022/02/18 04:34:34;;;;;;;14.00;3.93;;;9.70;99.90;;;;;;5047713;28;20903;-71
2022/02/18 04:37:00;;;;;;;10.87;3.70;;;9.80;99.90;;;;;;5049426;28;20613;-68
2022/02/18 04:39:25;;;;;;;10.83;4.10;;;9.80;99.90;;;;;;5049215;28;20182;-71
2022/02/18 04:41:51;;;;;;;10.47;3.20;;;9.80;99.90;;;;;;5049300;28;20573;-69
2022/02/18 04:44:17;;;;;;;8.23;3.47;;;9.90;99.90;;;;;;5049580;28;20202;-70
2022/02/18 04:46:43;;;;;;;10.67;3.60;;;9.80;99.90;;;;;;5048966;28;20776;-68
2022/02/18 04:49:09;;;;;;;8.33;2.90;;;9.70;99.90;;;;;;5038269;28;20244;-69
2022/02/18 04:54:07;;;;;;;8.30;3.27;;;10.00;99.90;;;;;;5043525;28;20241;-72
2022/02/18 04:56:33;;;;;;;10.13;3.50;;;10.00;99.90;;;;;;5046010;28;20468;-71
2022/02/18 04:58:59;;;;;;;7.30;3.97;;;10.10;99.90;;;;;;5044842;28;20506;-72
2022/02/18 05:01:25;;;;;;;11.33;3.20;;;10.20;99.90;;;;;;5045842;28;20420;-72
2022/02/18 05:03:51;;;;;;;10.00;3.33;;;10.20;99.90;;;;;;5028239;28;20444;-74
2022/02/18 05:06:18;;;;;;;11.23;4.03;;;10.10;99.90;;;;;;5045569;28;20450;-73
2022/02/18 05:08:43;;;;;;;12.30;3.33;;;10.20;99.90;;;;;;5045000;28;20420;-75
2022/02/18 05:11:10;;;;;;;11.53;2.90;;;10.20;99.90;;;;;;5046502;28;20416;-73
2022/02/18 05:13:36;;;;;;;11.90;3.30;;;10.10;99.90;;;;;;5045978;28;20266;-72
2022/02/18 05:16:01;;;;;;;15.37;3.90;;;10.00;99.90;;;;;;5046435;28;20415;-73
2022/02/18 05:18:27;;;;;;;11.63;3.80;;;10.00;99.90;;;;;;5046301;28;20183;-73
2022/02/18 05:20:53;;;;;;;8.50;3.47;;;9.90;99.90;;;;;;5046329;28;20179;-73
2022/02/18 05:23:19;;;;;;;9.23;2.93;;;10.00;99.90;;;;;;5044502;28;20450;-73
2022/02/18 05:25:44;;;;;;;12.90;3.27;;;10.10;99.90;;;;;;5046135;28;20198;-74
2022/02/18 05:28:10;;;;;;;11.80;3.33;;;10.00;99.90;;;;;;5045262;28;21195;-73
2022/02/18 05:30:36;;;;;;;10.10;3.57;;;9.90;99.90;;;;;;5028104;28;20330;-72
2022/02/18 05:33:02;;;;;;;12.63;4.53;;;10.00;99.90;;;;;;5045891;28;20214;-72
2022/02/18 05:35:28;;;;;;;9.30;3.80;;;10.20;99.90;;;;;;5045703;28;20184;-72
2022/02/18 05:37:54;;;;;;;11.93;4.13;;;10.20;99.90;;;;;;5044659;28;20420;-73
2022/02/18 05:40:19;;;;;;;12.13;4.07;;;10.20;99.90;;;;;;5045286;28;20682;-71
2022/02/18 05:42:45;;;;;;;12.43;3.77;;;10.10;99.90;;;;;;5044983;28;20283;-73
2022/02/18 05:45:11;;;;;;;9.40;3.77;;;10.30;99.90;;;;;;5044995;28;20202;-73
2022/02/18 05:47:37;;;;;;;12.33;4.70;;;10.40;99.90;;;;;;5045100;28;20550;-74
2022/02/18 05:50:08;;;;;;;7.40;3.80;;;10.20;99.90;;;;;;5045396;28;20450;-73
2022/02/18 05:52:36;;;;;;;8.90;3.53;;;10.10;99.90;;;;;;5044902;28;20473;-73
2022/02/18 05:55:03;;;;;;;11.00;3.90;;;10.20;99.90;;;;;;5045072;28;20425;-72
2022/02/18 05:57:29;;;;;;;14.43;4.53;;;10.20;99.90;;;;;;5044429;28;20421;-73
2022/02/18 05:59:55;;;;;;;10.87;3.20;;;10.20;99.90;;;;;;5044996;28;20405;-73
2022/02/18 06:02:20;;;;;;;9.27;3.40;;;10.10;99.90;;;;;;5044682;28;20256;-72
2022/02/18 06:04:46;;;;;;;8.83;3.57;;;10.10;99.90;;;;;;5045633;28;20183;-73
2022/02/18 06:07:11;;;;;;;14.80;4.50;;;10.30;99.90;;;;;;5045518;28;20174;-72
2022/02/18 06:09:37;;;;;;;7.07;3.60;;;10.50;99.90;;;;;;5045439;28;20175;-73
2022/02/18 06:12:03;;;;;;;16.30;4.40;;;10.40;99.90;;;;;;5044636;28;20316;-73
2022/02/18 06:14:29;;;;;;;12.20;3.77;;;10.40;99.90;;;;;;5027452;28;20436;-74
2022/02/18 06:16:54;;;;;;;12.77;3.43;;;10.40;99.90;;;;;;5044869;28;20417;-74
2022/02/18 06:19:20;;;;;;;11.70;4.60;;;10.50;99.90;;;;;;5044993;28;21137;-73
2022/02/18 06:21:46;;;;;;;11.10;3.93;;;10.50;99.90;;;;;;5043388;28;20182;-73
2022/02/18 06:24:11;;;;;;;8.03;2.60;;;10.60;99.90;;;;;;5043923;28;20315;-72
2022/02/18 06:26:37;;;;;;;12.70;3.83;;;10.70;99.90;;;;;;5043874;28;20996;-73
2022/02/18 06:29:03;;;;;;;11.63;4.03;;;10.50;99.90;;;;;;5044360;28;20176;-73
2022/02/18 06:31:29;;;;;;;8.43;3.40;;;10.60;99.90;;;;;;5044910;28;20418;-73
2022/02/18 06:33:55;;;;;;;13.20;4.10;;;10.70;99.90;;;;;;5045013;28;20983;-72
2022/02/18 06:36:22;;;;;;;10.40;3.83;;;10.70;99.90;;;;;;5026848;28;20634;-72
2022/02/18 06:38:47;;;;;;;9.10;3.93;;;10.80;99.90;;;;;;5044235;28;20500;-73
2022/02/18 06:41:14;;;;;;;11.70;3.67;;;10.90;99.90;;;;;;5043975;28;20510;-73
2022/02/18 06:43:40;;;;;;;9.23;4.27;;;11.00;99.90;;;;;;5044028;28;20263;-73
2022/02/18 06:46:06;;;;;;;16.13;7.50;;;10.80;99.90;;;;;;5043560;28;20452;-72
2022/02/18 06:48:32;;;;;;;11.73;4.70;;;10.90;99.90;;;;;;5043876;28;20429;-73
2022/02/18 06:50:57;;;;;;;11.37;5.07;;;11.00;99.90;;;;;;5043634;28;20252;-72
2022/02/18 06:53:23;;;;;;;15.13;5.93;;;10.80;99.90;;;;;;5043306;28;20453;-72
2022/02/18 06:55:49;;;;;;;12.77;4.33;;;10.90;99.90;;;;;;5043638;28;20179;-73
2022/02/18 06:58:14;;;;;;;8.33;3.87;;;10.90;99.90;;;;;;5043858;28;20194;-74
2022/02/18 07:00:40;;;;;;;13.67;3.67;;;11.00;99.90;;;;;;5043672;28;20193;-74
2022/02/18 07:03:07;;;;;;;9.53;4.23;;;10.90;99.90;;;;;;5025929;28;20209;-75
2022/02/18 07:05:33;;;;;;;14.00;3.80;;;10.80;99.90;;;;;;5043593;28;20453;-73
2022/02/18 07:08:00;;;;;;;7.53;3.53;;;10.80;99.90;;;;;;5043322;28;21244;-74
2022/02/18 07:10:25;;;;;;;10.70;3.50;;;10.90;99.90;;;;;;5043819;28;20407;-72
2022/02/18 07:12:51;;;;;;;12.40;3.57;;;10.90;99.90;;;;;;5043004;28;20442;-72
2022/02/18 07:15:17;;;;;;;9.37;3.50;;;11.00;99.90;;;;;;5043613;28;20178;-73
2022/02/18 07:17:43;;;;;;;11.03;3.17;;;10.90;99.90;;;;;;5043089;28;20661;-74
2022/02/18 07:20:09;;;;;;;9.23;3.60;;;10.90;99.90;;;;;;5025370;28;20268;-73
2022/02/18 07:22:37;;;;;;;8.70;3.73;;;11.00;99.90;;;;;;5026137;28;20572;-71
2022/02/18 07:25:05;;;;;;;14.83;4.20;;;11.00;99.90;;;;;;5026298;28;20514;-72
2022/02/18 07:27:31;;;;;;;8.40;3.40;;;11.20;99.90;;;;;;5043937;28;20452;-72
2022/02/18 07:29:56;;;;;;;11.07;3.63;;;11.20;99.90;;;;;;5044297;28;20453;-73
2022/02/18 07:32:24;;;;;;;8.60;3.13;;;11.00;99.90;;;;;;5045492;28;20213;-72
2022/02/18 07:34:50;;;;;;;7.80;3.07;;;11.10;99.90;;;;;;5047618;28;20192;-73
2022/02/18 07:37:16;;;;;;;14.90;3.00;;;11.00;99.90;;;;;;5048105;28;20413;-74
2022/02/18 07:39:42;;;;;;;5.40;2.40;;;11.00;99.90;;;;;;5047340;28;20420;-76
2022/02/18 07:42:09;;;;;;;8.37;3.33;;;11.10;99.90;;;;;;5047774;28;20197;-73
2022/02/18 07:44:35;;;;;;;8.53;3.47;;;11.00;99.90;;;;;;5048139;28;20162;-74
2022/02/18 07:47:00;;;;;;;5.63;2.50;;;11.10;99.90;;;;;;5047914;28;20986;-75
2022/02/18 07:49:26;;;;;;;8.13;3.33;;;11.20;99.90;;;;;;5047851;28;20429;-75
2022/02/18 07:51:52;;;;;;;9.27;3.27;;;11.30;99.90;;;;;;5047234;28;20221;-74
2022/02/18 07:54:17;;;;;;;8.27;2.90;;;11.20;99.90;;;;;;5046794;28;20229;-73
2022/02/18 07:56:43;;;;;;;5.60;2.67;;;11.30;99.90;;;;;;5046705;28;20188;-73
2022/02/18 07:59:10;;;;;;;7.83;3.00;;;11.30;99.90;;;;;;5046944;28;20175;-74
2022/02/18 08:01:36;;;;;;;9.43;3.10;;;11.30;99.90;;;;;;5046730;28;20409;-73
2022/02/18 08:04:01;;;;;;;8.13;2.60;;;11.40;99.90;;;;;;5046983;28;20448;-73
2022/02/18 08:06:27;;;;;;;4.57;2.37;;;11.40;99.90;;;;;;5045592;28;20191;-73
2022/02/18 08:08:53;;;;;;;10.13;2.43;;;11.40;99.90;;;;;;5046821;28;20643;-74
2022/02/18 08:11:19;;;;;;;6.57;2.70;;;11.40;99.90;;;;;;5046584;28;20183;-75
2022/02/18 08:13:45;;;;;;;7.10;2.40;;;11.50;99.90;;;;;;5046388;28;20198;-73
2022/02/18 08:16:10;;;;;;;6.30;2.27;;;11.70;99.90;;;;;;5046814;28;20419;-72
2022/02/18 08:18:37;;;;;;;5.57;2.27;;;11.70;99.90;;;;;;5046524;28;20555;-73
2022/02/18 08:21:03;;;;;;;5.53;2.23;;;11.80;99.90;;;;;;5046652;28;20189;-73
2022/02/18 08:23:29;;;;;;;6.90;2.23;;;11.80;99.90;;;;;;5028561;28;20448;-74
2022/02/18 08:25:55;;;;;;;3.80;1.57;;;11.90;99.90;;;;;;5045307;28;20453;-74
2022/02/18 08:28:20;;;;;;;4.50;1.90;;;12.00;99.90;;;;;;5046387;28;20241;-76
2022/02/18 08:30:47;;;;;;;7.20;2.70;;;12.40;99.90;;;;;;5046499;28;20182;-77
2022/02/18 08:33:12;;;;;;;5.87;1.97;;;12.10;99.90;;;;;;5046289;28;20199;-73
2022/02/18 08:35:39;;;;;;;5.43;1.77;;;12.10;99.90;;;;;;5045875;28;20763;-74
2022/02/18 08:38:05;;;;;;;5.67;1.63;;;12.20;99.90;;;;;;5045510;28;20190;-76
2022/02/18 08:40:32;;;;;;;6.20;1.83;;;12.20;99.90;;;;;;5045431;28;20533;-74
2022/02/18 08:42:58;;;;;;;9.00;1.90;;;12.40;99.90;;;;;;5045548;28;20447;-74
2022/02/18 08:45:24;;;;;;;3.70;1.80;;;12.50;99.90;;;;;;5046354;28;20464;-73
2022/02/18 08:47:50;;;;;;;4.13;1.53;;;12.40;99.90;;;;;;5046487;28;20485;-72
2022/02/18 08:50:16;;;;;;;4.00;2.10;;;12.40;99.90;;;;;;5046236;28;20406;-74
2022/02/18 08:52:45;;;;;;;5.83;1.37;;;12.50;99.90;;;;;;5026647;28;20213;-75
2022/02/18 08:55:13;;;;;;;8.03;1.30;;;12.70;99.90;;;;;;5045381;28;20559;-72
2022/02/18 08:57:39;;;;;;;2.70;1.30;;;12.90;99.90;;;;;;5046150;28;20420;-73
2022/02/18 09:00:07;;;;;;;5.27;1.33;;;12.80;99.90;;;;;;5045380;28;20415;-73
2022/02/18 09:02:35;;;;;;;3.73;1.23;;;13.00;99.90;;;;;;5027397;28;20444;-75
2022/02/18 09:05:04;;;;;;;3.67;1.43;;;12.90;99.90;;;;;;5045174;28;20785;-72
2022/02/18 09:07:30;;;;;;;5.30;1.43;;;13.00;99.90;;;;;;5045161;28;20437;-73
2022/02/18 09:09:56;;;;;;;3.33;1.60;;;13.20;99.90;;;;;;5045196;28;20777;-73
2022/02/18 09:12:23;;;;;;;3.53;1.30;;;13.30;99.90;;;;;;5045203;28;20519;-74
2022/02/18 09:14:49;;;;;;;2.80;1.40;;;13.40;99.90;;;;;;5045610;28;20244;-74
2022/02/18 09:17:14;;;;;;;4.03;1.33;;;13.40;99.90;;;;;;5045103;28;20403;-74
2022/02/18 09:19:40;;;;;;;2.73;1.40;;;13.50;99.90;;;;;;5045564;28;20723;-73
2022/02/18 09:22:06;;;;;;;7.90;1.60;;;13.70;99.90;;;;;;5045886;28;20209;-75
2022/02/18 09:24:32;;;;;;;3.10;1.07;;;13.80;99.90;;;;;;5045191;28;20649;-75
2022/02/18 09:26:58;;;;;;;4.53;1.40;;;14.00;99.90;;;;;;5044405;28;20209;-73
2022/02/18 09:29:26;;;;;;;4.40;1.10;;;14.00;99.90;;;;;;5027397;28;20519;-74
2022/02/18 09:31:51;;;;;;;3.00;1.27;;;14.00;99.90;;;;;;5045297;28;20893;-74
2022/02/18 09:34:17;;;;;;;3.10;1.33;;;14.10;99.90;;;;;;5045090;28;20412;-75
2022/02/18 09:36:44;;;;;;;3.22;1.45;;;14.10;99.90;;;;;;5044555;28;20414;-76
2022/02/18 09:39:12;;;;;;;2.73;1.10;;;14.30;99.90;;;;;;5045076;28;20186;-75
2022/02/18 09:41:40;;;;;;;2.93;0.90;;;14.50;99.90;;;;;;5044675;28;20406;-76
2022/02/18 09:44:09;;;;;;;3.03;1.10;;;14.60;99.90;;;;;;5044470;28;20428;-77
2022/02/18 09:46:38;;;;;;;1.73;0.90;;;14.70;99.90;;;;;;5045215;28;20574;-76
2022/02/18 09:49:04;;;;;;;4.60;1.20;;;14.70;99.90;;;;;;5027353;28;20435;-74
2022/02/18 09:51:31;;;;;;;2.07;1.30;;;14.70;99.90;;;;;;5046773;28;20504;-76
2022/02/18 09:53:58;;;;;;;3.20;1.10;;;14.70;99.90;;;;;;5045854;28;20455;-73
2022/02/18 09:56:25;;;;;;;2.87;1.13;;;14.60;99.90;;;;;;5044651;28;20946;-73
2022/02/18 09:58:52;;;;;;;1.97;1.17;;;14.50;99.90;;;;;;5045544;28;20424;-75
2022/02/18 10:01:19;;;;;;;1.50;1.00;;;14.90;99.90;;;;;;5045069;28;20442;-75
2022/02/18 10:03:44;;;;;;;3.43;1.10;;;15.20;99.90;;;;;;5044731;28;20443;-74
2022/02/18 10:06:10;;;;;;;2.60;1.33;;;15.30;99.90;;;;;;5044441;28;20524;-76
2022/02/18 10:08:47;;;;;;;3.93;1.60;;;15.50;99.90;;;;;;5044455;28;20552;-77
2022/02/18 10:11:13;;;;;;;2.47;1.07;;;15.50;99.90;;;;;;5044374;28;20177;-74
2022/02/18 10:13:40;;;;;;;3.77;1.10;;;15.50;99.90;;;;;;5044308;28;20543;-73
2022/02/18 10:16:19;;;;;;;5.33;1.30;;;15.60;99.90;;;;;;5044561;28;20735;-76
2022/02/18 10:18:47;;;;;;;1.83;0.97;;;15.70;99.90;;;;;;5030412;28;20944;-75
2022/02/18 10:21:14;;;;;;;6.80;1.27;;;15.50;99.90;;;;;;5044561;28;20413;-75
2022/02/18 10:23:40;;;;;;;3.10;1.30;;;15.80;99.90;;;;;;5044290;28;20884;-73
2022/02/18 10:26:05;;;;;;;1.63;1.20;;;15.70;99.90;;;;;;5043522;28;20850;-74
2022/02/18 10:28:31;;;;;;;4.57;1.20;;;15.70;99.90;;;;;;5044224;28;20416;-74
2022/02/18 10:31:02;;;;;;;2.53;1.07;;;15.70;99.90;;;;;;5044690;28;20538;-75
2022/02/18 10:33:28;;;;;;;4.70;1.50;;;15.80;99.90;;;;;;5045331;28;21183;-73
2022/02/18 10:36:01;;;;;;;2.67;1.00;;;15.80;99.90;;;;;;5044344;28;20456;-74
2022/02/18 10:38:38;;;;;;;1.57;1.03;;;15.80;99.90;;;;;;5044008;28;20192;-76
2022/02/18 10:41:23;;;;;;;6.10;1.57;;;16.00;99.90;;;;;;5043363;28;20956;-74
2022/02/18 10:43:50;;;;;;;4.00;1.60;;;16.20;99.90;;;;;;5043552;28;20470;-71
2022/02/18 10:46:15;;;;;;;2.73;1.37;;;16.20;99.90;;;;;;5044005;28;20453;-72
2022/02/18 10:48:48;;;;;;;2.33;1.50;;;16.20;99.90;;;;;;5043731;28;20409;-73
2022/02/18 10:51:18;;;;;;;5.00;1.07;;;16.30;99.90;;;;;;5043919;28;20288;-75
2022/02/18 10:53:47;;;;;;;5.33;1.60;;;16.70;99.90;;;;;;5043561;28;20960;-74
2022/02/18 10:56:14;;;;;;;2.93;1.70;;;16.90;99.90;;;;;;5043628;28;20486;-73
2022/02/18 10:58:50;;;;;;;2.40;1.00;;;16.90;99.90;;;;;;5043682;28;20425;-75
2022/02/18 11:01:23;;;;;;;2.47;0.93;;;17.00;99.90;;;;;;5043671;28;20424;-73
2022/02/18 11:04:00;;;;;;;3.90;1.20;;;17.20;99.90;;;;;;5025542;28;20444;-73
2022/02/18 11:06:28;;;;;;;4.90;1.20;;;17.30;99.90;;;;;;5042990;28;20448;-72
2022/02/18 11:09:04;;;;;;;3.20;1.53;;;17.30;99.90;;;;;;5042947;28;20416;-76
2022/02/18 11:11:36;;;;;;;3.30;1.40;;;17.30;99.90;;;;;;5042913;28;20417;-75
2022/02/18 11:14:04;;;;;;;3.27;1.33;;;17.30;99.90;;;;;;5043738;28;20867;-74
2022/02/18 11:16:32;;;;;;;2.47;1.43;;;17.50;99.90;;;;;;5043413;28;20425;-75
2022/02/18 11:18:59;;;;;;;4.13;1.23;;;17.90;99.90;;;;;;5025324;28;20433;-74
2022/02/18 11:21:27;;;;;;;3.20;1.17;;;18.40;99.90;;;;;;5043011;28;20421;-75
2022/02/18 11:23:54;;;;;;;1.60;1.30;;;19.00;99.90;;;;;;5042892;28;20460;-74
2022/02/18 11:26:21;;;;;;;4.90;0.97;;;18.80;99.90;;;;;;5043195;28;20452;-74
2022/02/18 11:28:48;;;;;;;2.80;1.00;;;18.60;99.90;;;;;;5043534;28;20507;-75
2022/02/18 11:31:28;;;;;;;6.00;1.33;;;18.10;99.90;;;;;;5043269;28;20401;-74
2022/02/18 11:34:05;;;;;;;2.50;0.93;;;17.70;99.90;;;;;;5043600;28;20478;-73
2022/02/18 11:36:40;;;;;;;3.90;1.07;;;17.40;99.90;;;;;;5043200;28;20425;-73
2022/02/18 11:39:26;;;;;;;5.60;1.10;;;17.40;99.90;;;;;;5043088;28;20412;-74
2022/02/18 11:42:31;;;;;;;2.10;0.93;;;17.30;99.90;;;;;;5042524;28;20397;-74
2022/02/18 11:44:57;;;;;;;1.80;0.83;;;17.80;99.90;;;;;;5043212;28;20504;-74
2022/02/18 11:47:23;;;;;;;3.13;1.13;;;18.60;99.90;;;;;;5042975;28;21389;-74
2022/02/18 11:49:51;;;;;;;2.33;1.03;;;18.80;99.90;;;;;;5043237;28;20409;-75
2022/02/18 11:52:20;;;;;;;3.47;1.03;;;18.20;99.90;;;;;;5043027;28;20453;-74
2022/02/18 11:54:47;;;;;;;1.67;1.30;;;18.70;99.90;;;;;;5042602;28;20428;-74
2022/02/18 11:57:17;;;;;;;3.00;1.50;;;18.50;99.70;;;;;;5042702;28;21149;-74
2022/02/18 12:00:08;;;;;;;3.20;0.80;;;18.40;99.90;;;;;;5042902;28;20409;-74
2022/02/18 12:02:53;;;;;;;2.00;1.00;;;18.70;99.90;;;;;;5042742;28;20512;-71
2022/02/18 12:05:19;;;;;;;6.00;1.33;;;18.60;99.80;;;;;;5042991;28;20463;-72
2022/02/18 12:07:46;;;;;;;2.80;1.00;;;18.90;99.80;;;;;;5041587;28;20427;-74
2022/02/18 12:10:25;;;;;;;7.33;1.47;;;18.50;99.80;;;;;;5042517;28;20409;-75
2022/02/18 12:13:05;;;;;;;2.40;1.30;;;18.50;99.90;;;;;;5043352;28;20428;-73
2022/02/18 12:15:36;;;;;;;3.30;1.10;;;19.40;99.30;;;;;;5043018;28;20409;-72
2022/02/18 12:18:08;;;;;;;2.80;1.30;;;20.10;99.00;;;;;;5042807;28;20584;-73
2022/02/18 12:20:39;;;;;;;4.50;1.30;;;20.80;97.30;;;;;;5046666;28;20406;-73
2022/02/18 12:23:24;;;;;;;4.23;1.33;;;20.10;97.60;;;;;;5028416;28;20473;-74
2022/02/18 12:26:10;;;;;;;4.90;1.23;;;19.90;98.00;;;;;;5046455;28;20424;-74
2022/02/18 12:28:36;;;;;;;3.20;1.00;;;19.00;98.20;;;;;;5046564;28;20420;-74
2022/02/18 12:31:09;;;;;;;1.73;0.80;;;18.50;98.90;;;;;;5046549;28;20413;-73
2022/02/18 12:33:38;;;;;;;4.20;1.20;;;18.10;99.60;;;;;;5046261;28;20211;-73
2022/02/18 12:36:06;;;;;;;1.67;0.90;;;18.00;99.90;;;;;;5046853;28;20449;-74
2022/02/18 12:38:32;;;;;;;5.43;1.20;;;17.90;99.90;;;;;;5045758;28;20506;-74
2022/02/18 12:40:58;;;;;;;3.40;1.30;;;17.80;99.90;;;;;;5046293;28;20421;-74
2022/02/18 12:43:23;;;;;;;3.07;1.00;;;17.90;99.90;;;;;;5045318;28;20191;-74
2022/02/18 12:46:02;;;;;;;4.03;1.17;;;18.20;99.70;;;;;;5046230;28;20174;-74